PWSweather.com
Personal Weather Stations
Station Observations
AC5CV
Greenleaf Peninsula, Waco, TX 76710

Greenleaf PeninsulaWaco, TX 76710

Lat: 31.565, Lon: -97.198

Elevation: 570

Station Type: Ambient WS2080

http://johnchamber.dyndns.info/

High Low Average
Temperature 98.3°F36.8°C 78.6°F25.9°C 88.1°F31.2°C
Dew Point 73.9°F23.3°C 63.5°F17.5°C 70.2°F21.2°C
Winds 12.7 mph 20.4 kmh Calm Calm 3.0 mph S4.8 kmh S
Wind Gusts 22.4 mph36.0 kmh -- 7.0 mph11.3 kmh
Humidity 83% 33% 58%
Pressure 29.41 in995.9 mb 29.25 in990.5 mb -
Precipitation 0.00 in0.0 mm - -
Hour Temp Dew Point Humidity Winds Wind Gusts Pressure Precip Precip Rate Daily Precip Total
12:00 AM 86.0°F30.0°C 70.5°F21.4°C 60% 6.2 mph SE10.0 kmh SE 9.8 mph15.8 kmh 29.36 in994.2 mb 0.00 in0.0 mm 0.00 in0.0 mm 0.00 in0.0 mm
12:05 AM 86.0°F30.0°C 71.2°F21.8°C 62% 5.2 mph SE8.4 kmh SE 7.4 mph11.9 kmh 29.36 in994.2 mb 0.00 in0.0 mm 0.00 in0.0 mm 0.00 in0.0 mm
12:10 AM 85.9°F29.9°C 71.4°F21.9°C 62% 5.8 mph SSE9.3 kmh SSE 9.8 mph15.8 kmh 29.36 in994.2 mb 0.00 in0.0 mm 0.00 in0.0 mm 0.00 in0.0 mm
12:15 AM 85.6°F29.8°C 71.5°F21.9°C 63% 6.6 mph SE10.6 kmh SE 9.8 mph15.8 kmh 29.36 in994.2 mb 0.00 in0.0 mm 0.00 in0.0 mm 0.00 in0.0 mm
12:20 AM 85.1°F29.5°C 71.3°F21.8°C 64% 6.7 mph SSE10.8 kmh SSE 9.8 mph15.8 kmh 29.36 in994.2 mb 0.00 in0.0 mm 0.00 in0.0 mm 0.00 in0.0 mm
12:25 AM 85.1°F29.5°C 71.5°F21.9°C 64% 4.7 mph S7.6 kmh S 7.4 mph11.9 kmh 29.36 in994.2 mb 0.00 in0.0 mm 0.00 in0.0 mm 0.00 in0.0 mm
12:30 AM 85.0°F29.4°C 71.9°F22.2°C 65% 6.8 mph SSE10.9 kmh SSE 12.3 mph19.8 kmh 29.36 in994.2 mb 0.00 in0.0 mm 0.00 in0.0 mm 0.00 in0.0 mm
12:35 AM 84.9°F29.4°C 71.7°F22.1°C 65% 7.8 mph S12.6 kmh S 12.3 mph19.8 kmh 29.36 in994.2 mb 0.00 in0.0 mm 0.00 in0.0 mm 0.00 in0.0 mm
12:40 AM 84.7°F29.3°C 71.6°F22.0°C 65% 4.9 mph SSE7.9 kmh SSE 7.4 mph11.9 kmh 29.36 in994.2 mb 0.00 in0.0 mm 0.00 in0.0 mm 0.00 in0.0 mm
12:45 AM 84.7°F29.3°C 71.9°F22.2°C 66% 5.4 mph SSE8.7 kmh SSE 9.8 mph15.8 kmh 29.36 in994.2 mb 0.00 in0.0 mm 0.00 in0.0 mm 0.00 in0.0 mm
12:50 AM 84.6°F29.2°C 72.0°F22.2°C 66% 4.2 mph SSE6.8 kmh SSE 7.4 mph11.9 kmh 29.36 in994.2 mb 0.00 in0.0 mm 0.00 in0.0 mm 0.00 in0.0 mm
12:55 AM 84.5°F29.2°C 72.3°F22.4°C 67% 4.8 mph SSE7.7 kmh SSE 9.8 mph15.8 kmh 29.36 in994.2 mb 0.00 in0.0 mm 0.00 in0.0 mm 0.00 in0.0 mm
01:00 AM 84.4°F29.1°C 72.2°F22.3°C 67% 5.0 mph SSE8.0 kmh SSE 7.4 mph11.9 kmh 29.36 in994.2 mb 0.00 in0.0 mm 0.00 in0.0 mm 0.00 in0.0 mm
01:05 AM 84.3°F29.1°C 72.4°F22.4°C 68% 3.9 mph SSE6.3 kmh SSE 7.4 mph11.9 kmh 29.36 in994.2 mb 0.00 in0.0 mm 0.00 in0.0 mm 0.00 in0.0 mm
01:10 AM 84.2°F29.0°C 72.8°F22.7°C 69% 4.4 mph SSE7.1 kmh SSE 7.4 mph11.9 kmh 29.36 in994.2 mb 0.00 in0.0 mm 0.00 in0.0 mm 0.00 in0.0 mm
01:15 AM 84.1°F28.9°C 72.8°F22.7°C 69% 3.4 mph S5.5 kmh S 7.4 mph11.9 kmh 29.36 in994.2 mb 0.00 in0.0 mm 0.00 in0.0 mm 0.00 in0.0 mm
01:20 AM 83.8°F28.8°C 72.7°F22.6°C 70% 4.1 mph SSE6.6 kmh SSE 7.4 mph11.9 kmh 29.36 in994.2 mb 0.00 in0.0 mm 0.00 in0.0 mm 0.00 in0.0 mm
01:25 AM 83.7°F28.7°C 72.9°F22.7°C 70% 3.3 mph SSE5.3 kmh SSE 7.4 mph11.9 kmh 29.36 in994.2 mb 0.00 in0.0 mm 0.00 in0.0 mm 0.00 in0.0 mm
01:30 AM 83.7°F28.7°C 73.3°F22.9°C 71% 3.4 mph SSE5.5 kmh SSE 7.4 mph11.9 kmh 29.36 in994.2 mb 0.00 in0.0 mm 0.00 in0.0 mm 0.00 in0.0 mm
01:35 AM 83.6°F28.7°C 73.2°F22.9°C 71% 3.1 mph SSW5.0 kmh SSW 4.9 mph7.9 kmh 29.36 in994.2 mb 0.00 in0.0 mm 0.00 in0.0 mm 0.00 in0.0 mm
01:40 AM 83.3°F28.5°C 73.0°F22.8°C 71% 4.0 mph S6.4 kmh S 7.4 mph11.9 kmh 29.36 in994.2 mb 0.00 in0.0 mm 0.00 in0.0 mm 0.00 in0.0 mm
01:45 AM 83.3°F28.5°C 73.3°F22.9°C 72% 4.6 mph S7.4 kmh S 9.8 mph15.8 kmh 29.36 in994.2 mb 0.00 in0.0 mm 0.00 in0.0 mm 0.00 in0.0 mm
01:50 AM 83.3°F28.5°C 73.3°F22.9°C 72% 2.2 mph SSE3.5 kmh SSE 7.4 mph11.9 kmh 29.36 in994.2 mb 0.00 in0.0 mm 0.00 in0.0 mm 0.00 in0.0 mm
01:55 AM 83.2°F28.4°C 73.2°F22.9°C 72% 3.1 mph S5.0 kmh S 7.4 mph11.9 kmh 29.36 in994.2 mb 0.00 in0.0 mm 0.00 in0.0 mm 0.00 in0.0 mm
02:00 AM 83.1°F28.4°C 73.5°F23.1°C 73% 2.8 mph S4.5 kmh S 7.4 mph11.9 kmh 29.36 in994.2 mb 0.00 in0.0 mm 0.00 in0.0 mm 0.00 in0.0 mm
02:05 AM 83.0°F28.3°C 73.4°F23.0°C 73% 2.8 mph SSE4.5 kmh SSE 7.4 mph11.9 kmh 29.37 in994.6 mb 0.00 in0.0 mm 0.00 in0.0 mm 0.00 in0.0 mm
02:10 AM 82.9°F28.3°C 73.3°F22.9°C 73% 3.2 mph SSW5.1 kmh SSW 7.4 mph11.9 kmh 29.37 in994.6 mb 0.00 in0.0 mm 0.00 in0.0 mm 0.00 in0.0 mm
02:15 AM 82.9°F28.3°C 73.5°F23.1°C 73% 3.5 mph S5.6 kmh S 7.4 mph11.9 kmh 29.36 in994.2 mb 0.00 in0.0 mm 0.00 in0.0 mm 0.00 in0.0 mm
02:20 AM 82.7°F28.2°C 73.5°F23.1°C 74% 2.4 mph S3.9 kmh S 7.4 mph11.9 kmh 29.36 in994.2 mb 0.00 in0.0 mm 0.00 in0.0 mm 0.00 in0.0 mm
02:25 AM 82.6°F28.1°C 73.4°F23.0°C 74% 4.9 mph S7.9 kmh S 9.8 mph15.8 kmh 29.36 in994.2 mb 0.00 in0.0 mm 0.00 in0.0 mm 0.00 in0.0 mm
02:30 AM 82.6°F28.1°C 73.6°F23.1°C 74% 2.7 mph SSE4.3 kmh SSE 7.4 mph11.9 kmh 29.37 in994.6 mb 0.00 in0.0 mm 0.00 in0.0 mm 0.00 in0.0 mm
02:35 AM 82.6°F28.1°C 73.9°F23.3°C 75% 3.6 mph S5.8 kmh S 9.8 mph15.8 kmh 29.37 in994.6 mb 0.00 in0.0 mm 0.00 in0.0 mm 0.00 in0.0 mm
02:40 AM 82.4°F28.0°C 73.7°F23.2°C 75% 5.2 mph S8.4 kmh S 9.8 mph15.8 kmh 29.36 in994.2 mb 0.00 in0.0 mm 0.00 in0.0 mm 0.00 in0.0 mm
02:45 AM 82.3°F27.9°C 73.5°F23.1°C 75% 2.5 mph S4.0 kmh S 4.9 mph7.9 kmh 29.37 in994.6 mb 0.00 in0.0 mm 0.00 in0.0 mm 0.00 in0.0 mm
02:50 AM 82.2°F27.9°C 73.5°F23.1°C 75% 4.2 mph SSE6.8 kmh SSE 9.8 mph15.8 kmh 29.36 in994.2 mb 0.00 in0.0 mm 0.00 in0.0 mm 0.00 in0.0 mm
02:55 AM 82.2°F27.9°C 73.5°F23.1°C 75% 5.0 mph SSE8.0 kmh SSE 9.8 mph15.8 kmh 29.37 in994.6 mb 0.00 in0.0 mm 0.00 in0.0 mm 0.00 in0.0 mm
03:00 AM 82.0°F27.8°C 73.7°F23.2°C 76% 4.1 mph S6.6 kmh S 9.8 mph15.8 kmh 29.37 in994.6 mb 0.00 in0.0 mm 0.00 in0.0 mm 0.00 in0.0 mm
03:05 AM 82.0°F27.8°C 73.6°F23.1°C 76% 7.0 mph S11.3 kmh S 12.3 mph19.8 kmh 29.37 in994.6 mb 0.00 in0.0 mm 0.00 in0.0 mm 0.00 in0.0 mm
03:10 AM 81.9°F27.7°C 73.6°F23.1°C 76% 2.6 mph S4.2 kmh S 7.4 mph11.9 kmh 29.37 in994.6 mb 0.00 in0.0 mm 0.00 in0.0 mm 0.00 in0.0 mm
03:15 AM 81.9°F27.7°C 73.6°F23.1°C 76% 3.2 mph S5.1 kmh S 4.9 mph7.9 kmh 29.37 in994.6 mb 0.00 in0.0 mm 0.00 in0.0 mm 0.00 in0.0 mm
03:20 AM 81.7°F27.6°C 73.8°F23.2°C 77% 4.8 mph S7.7 kmh S 7.4 mph11.9 kmh 29.36 in994.2 mb 0.00 in0.0 mm 0.00 in0.0 mm 0.00 in0.0 mm
03:25 AM 81.6°F27.6°C 73.7°F23.2°C 77% 5.8 mph S9.3 kmh S 9.8 mph15.8 kmh 29.37 in994.6 mb 0.00 in0.0 mm 0.00 in0.0 mm 0.00 in0.0 mm
03:30 AM 81.5°F27.5°C 73.6°F23.1°C 77% 3.5 mph S5.6 kmh S 7.4 mph11.9 kmh 29.37 in994.6 mb 0.00 in0.0 mm 0.00 in0.0 mm 0.00 in0.0 mm
03:35 AM 81.5°F27.5°C 73.6°F23.1°C 77% 1.5 mph SW2.4 kmh SW 4.9 mph7.9 kmh 29.37 in994.6 mb 0.00 in0.0 mm 0.00 in0.0 mm 0.00 in0.0 mm
03:40 AM 81.3°F27.4°C 73.8°F23.2°C 78% 3.3 mph S5.3 kmh S 7.4 mph11.9 kmh 29.37 in994.6 mb 0.00 in0.0 mm 0.00 in0.0 mm 0.00 in0.0 mm
03:45 AM 81.2°F27.3°C 73.6°F23.1°C 78% 2.9 mph S4.7 kmh S 7.4 mph11.9 kmh 29.37 in994.6 mb 0.00 in0.0 mm 0.00 in0.0 mm 0.00 in0.0 mm
03:50 AM 81.1°F27.3°C 73.6°F23.1°C 78% 1.2 mph SSW1.9 kmh SSW 2.5 mph4.0 kmh 29.37 in994.6 mb 0.00 in0.0 mm 0.00 in0.0 mm 0.00 in0.0 mm
03:55 AM 81.1°F27.3°C 73.6°F23.1°C 78% 2.0 mph S3.2 kmh S 9.8 mph15.8 kmh 29.37 in994.6 mb 0.00 in0.0 mm 0.00 in0.0 mm 0.00 in0.0 mm
04:00 AM 81.0°F27.2°C 73.5°F23.1°C 78% 3.0 mph S4.8 kmh S 7.4 mph11.9 kmh 29.36 in994.2 mb 0.00 in0.0 mm 0.00 in0.0 mm 0.00 in0.0 mm
04:05 AM 81.0°F27.2°C 73.5°F23.1°C 78% 1.7 mph S2.7 kmh S 7.4 mph11.9 kmh 29.36 in994.2 mb 0.00 in0.0 mm 0.00 in0.0 mm 0.00 in0.0 mm
04:10 AM 81.0°F27.2°C 73.9°F23.3°C 79% 1.2 mph S1.9 kmh S 4.9 mph7.9 kmh 29.37 in994.6 mb 0.00 in0.0 mm 0.00 in0.0 mm 0.00 in0.0 mm
04:15 AM 80.9°F27.2°C 73.8°F23.2°C 79% 2.0 mph SSW3.2 kmh SSW 4.9 mph7.9 kmh 29.37 in994.6 mb 0.00 in0.0 mm 0.00 in0.0 mm 0.00 in0.0 mm
04:20 AM 80.8°F27.1°C 73.6°F23.1°C 79% 1.3 mph SSE2.1 kmh SSE 4.9 mph7.9 kmh 29.36 in994.2 mb 0.00 in0.0 mm 0.00 in0.0 mm 0.00 in0.0 mm
04:25 AM 80.6°F27.0°C 73.5°F23.1°C 79% 0.6 mph SW1.0 kmh SW 4.9 mph7.9 kmh 29.36 in994.2 mb 0.00 in0.0 mm 0.00 in0.0 mm 0.00 in0.0 mm
04:30 AM 80.6°F27.0°C 73.5°F23.1°C 79% 1.1 mph SW1.8 kmh SW 4.9 mph7.9 kmh 29.36 in994.2 mb 0.00 in0.0 mm 0.00 in0.0 mm 0.00 in0.0 mm
04:35 AM 80.6°F27.0°C 73.5°F23.1°C 79% 2.5 mph S4.0 kmh S 7.4 mph11.9 kmh 29.36 in994.2 mb 0.00 in0.0 mm 0.00 in0.0 mm 0.00 in0.0 mm
04:40 AM 80.5°F26.9°C 73.4°F23.0°C 79% 1.1 mph WSW1.8 kmh WSW 2.5 mph4.0 kmh 29.36 in994.2 mb 0.00 in0.0 mm 0.00 in0.0 mm 0.00 in0.0 mm
04:45 AM 80.4°F26.9°C 73.5°F23.1°C 80% 0.8 mph SW1.3 kmh SW 2.5 mph4.0 kmh 29.36 in994.2 mb 0.00 in0.0 mm 0.00 in0.0 mm 0.00 in0.0 mm
04:50 AM 80.4°F26.9°C 73.3°F22.9°C 79% 0.7 mph SW1.1 kmh SW 2.5 mph4.0 kmh 29.37 in994.6 mb 0.00 in0.0 mm 0.00 in0.0 mm 0.00 in0.0 mm
04:55 AM 80.4°F26.9°C 73.5°F23.1°C 80% 0.8 mph S1.3 kmh S 4.9 mph7.9 kmh 29.36 in994.2 mb 0.00 in0.0 mm 0.00 in0.0 mm 0.00 in0.0 mm
05:00 AM 80.4°F26.9°C 73.6°F23.1°C 80% Calm Calm -- 29.37 in994.6 mb 0.00 in0.0 mm 0.00 in0.0 mm 0.00 in0.0 mm
05:05 AM 80.4°F26.9°C 73.6°F23.1°C 80% 0.4 mph WSW0.6 kmh WSW 2.5 mph4.0 kmh 29.36 in994.2 mb 0.00 in0.0 mm 0.00 in0.0 mm 0.00 in0.0 mm
05:10 AM 80.4°F26.9°C 73.6°F23.1°C 80% 0.2 mph S0.3 kmh S 2.5 mph4.0 kmh 29.36 in994.2 mb 0.00 in0.0 mm 0.00 in0.0 mm 0.00 in0.0 mm
05:15 AM 80.4°F26.9°C 73.6°F23.1°C 80% 0.8 mph SW1.3 kmh SW 2.5 mph4.0 kmh 29.37 in994.6 mb 0.00 in0.0 mm 0.00 in0.0 mm 0.00 in0.0 mm
05:20 AM 80.0°F26.7°C 73.6°F23.1°C 81% 0.3 mph WSW0.5 kmh WSW 2.5 mph4.0 kmh 29.37 in994.6 mb 0.00 in0.0 mm 0.00 in0.0 mm 0.00 in0.0 mm
05:25 AM 79.7°F26.5°C 73.3°F22.9°C 81% Calm Calm -- 29.37 in994.6 mb 0.00 in0.0 mm 0.00 in0.0 mm 0.00 in0.0 mm
05:30 AM 79.6°F26.4°C 73.3°F22.9°C 81% Calm Calm -- 29.37 in994.6 mb 0.00 in0.0 mm 0.00 in0.0 mm 0.00 in0.0 mm
05:35 AM 79.5°F26.4°C 73.1°F22.8°C 81% 0.3 mph SSW0.5 kmh SSW 2.5 mph4.0 kmh 29.37 in994.6 mb 0.00 in0.0 mm 0.00 in0.0 mm 0.00 in0.0 mm
05:40 AM 79.4°F26.3°C 73.0°F22.8°C 81% 0.1 mph SW0.2 kmh SW 2.5 mph4.0 kmh 29.37 in994.6 mb 0.00 in0.0 mm 0.00 in0.0 mm 0.00 in0.0 mm
05:45 AM 79.3°F26.3°C 72.9°F22.7°C 81% 0.3 mph S0.5 kmh S 2.5 mph4.0 kmh 29.36 in994.2 mb 0.00 in0.0 mm 0.00 in0.0 mm 0.00 in0.0 mm
05:50 AM 79.3°F26.3°C 72.9°F22.7°C 81% 1.0 mph SSW1.6 kmh SSW 4.9 mph7.9 kmh 29.37 in994.6 mb 0.00 in0.0 mm 0.00 in0.0 mm 0.00 in0.0 mm
05:55 AM 79.2°F26.2°C 72.9°F22.7°C 81% 0.4 mph SSW0.6 kmh SSW 2.5 mph4.0 kmh 29.37 in994.6 mb 0.00 in0.0 mm 0.00 in0.0 mm 0.00 in0.0 mm
06:00 AM 79.2°F26.2°C 72.9°F22.7°C 81% Calm Calm 2.5 mph4.0 kmh 29.37 in994.6 mb 0.00 in0.0 mm 0.00 in0.0 mm 0.00 in0.0 mm
06:05 AM 79.2°F26.2°C 72.9°F22.7°C 81% 0.6 mph S1.0 kmh S 2.5 mph4.0 kmh 29.37 in994.6 mb 0.00 in0.0 mm 0.00 in0.0 mm 0.00 in0.0 mm
06:10 AM 79.1°F26.2°C 72.8°F22.7°C 81% 0.5 mph S0.8 kmh S 2.5 mph4.0 kmh 29.37 in994.6 mb 0.00 in0.0 mm 0.00 in0.0 mm 0.00 in0.0 mm
06:15 AM 79.0°F26.1°C 72.7°F22.6°C 81% Calm Calm -- 29.37 in994.6 mb 0.00 in0.0 mm 0.00 in0.0 mm 0.00 in0.0 mm
06:20 AM 78.9°F26.1°C 72.7°F22.6°C 82% 0.9 mph S1.4 kmh S 4.9 mph7.9 kmh 29.37 in994.6 mb 0.00 in0.0 mm 0.00 in0.0 mm 0.00 in0.0 mm
06:25 AM 78.8°F26.0°C 72.5°F22.5°C 81% 0.5 mph S0.8 kmh S 4.9 mph7.9 kmh 29.37 in994.6 mb 0.00 in0.0 mm 0.00 in0.0 mm 0.00 in0.0 mm
06:30 AM 78.8°F26.0°C 72.9°F22.7°C 82% 0.2 mph S0.3 kmh S 2.5 mph4.0 kmh 29.37 in994.6 mb 0.00 in0.0 mm 0.00 in0.0 mm 0.00 in0.0 mm
06:35 AM 78.6°F25.9°C 73.0°F22.8°C 83% 0.4 mph SW0.6 kmh SW 2.5 mph4.0 kmh 29.37 in994.6 mb 0.00 in0.0 mm 0.00 in0.0 mm 0.00 in0.0 mm
06:40 AM 78.6°F25.9°C 73.0°F22.8°C 83% 0.2 mph SW0.3 kmh SW 2.5 mph4.0 kmh 29.38 in994.9 mb 0.00 in0.0 mm 0.00 in0.0 mm 0.00 in0.0 mm
06:45 AM 78.6°F25.9°C 73.0°F22.8°C 83% 0.5 mph S0.8 kmh S 4.9 mph7.9 kmh 29.38 in994.9 mb 0.00 in0.0 mm 0.00 in0.0 mm 0.00 in0.0 mm
06:50 AM 78.6°F25.9°C 73.0°F22.8°C 83% 0.9 mph SSW1.4 kmh SSW 4.9 mph7.9 kmh 29.38 in994.9 mb 0.00 in0.0 mm 0.00 in0.0 mm 0.00 in0.0 mm
06:55 AM 78.6°F25.9°C 73.0°F22.8°C 83% 0.5 mph S0.8 kmh S 2.5 mph4.0 kmh 29.38 in994.9 mb 0.00 in0.0 mm 0.00 in0.0 mm 0.00 in0.0 mm
07:00 AM 78.6°F25.9°C 73.0°F22.8°C 83% 1.2 mph SSE1.9 kmh SSE 4.9 mph7.9 kmh 29.38 in994.9 mb 0.00 in0.0 mm 0.00 in0.0 mm 0.00 in0.0 mm
07:05 AM 78.6°F25.9°C 73.0°F22.8°C 83% 1.6 mph S2.6 kmh S 4.9 mph7.9 kmh 29.38 in994.9 mb 0.00 in0.0 mm 0.00 in0.0 mm 0.00 in0.0 mm
07:10 AM 78.6°F25.9°C 73.0°F22.8°C 83% 0.4 mph SSE0.6 kmh SSE 2.5 mph4.0 kmh 29.38 in994.9 mb 0.00 in0.0 mm 0.00 in0.0 mm 0.00 in0.0 mm
07:15 AM 78.6°F25.9°C 73.0°F22.8°C 83% 0.6 mph SSW1.0 kmh SSW 4.9 mph7.9 kmh 29.39 in995.3 mb 0.00 in0.0 mm 0.00 in0.0 mm 0.00 in0.0 mm
07:20 AM 78.6°F25.9°C 72.8°F22.7°C 82% 0.9 mph S1.4 kmh S 4.9 mph7.9 kmh 29.39 in995.3 mb 0.00 in0.0 mm 0.00 in0.0 mm 0.00 in0.0 mm
07:25 AM 78.6°F25.9°C 72.4°F22.4°C 81% 2.6 mph S4.2 kmh S 4.9 mph7.9 kmh 29.39 in995.3 mb 0.00 in0.0 mm 0.00 in0.0 mm 0.00 in0.0 mm
07:30 AM 78.7°F25.9°C 71.8°F22.1°C 80% 0.4 mph SSW0.6 kmh SSW 2.5 mph4.0 kmh 29.38 in994.9 mb 0.00 in0.0 mm 0.00 in0.0 mm 0.00 in0.0 mm
07:35 AM 78.9°F26.1°C 71.5°F21.9°C 78% 0.6 mph S1.0 kmh S 4.9 mph7.9 kmh 29.39 in995.3 mb 0.00 in0.0 mm 0.00 in0.0 mm 0.00 in0.0 mm
07:40 AM 79.7°F26.5°C 71.2°F21.8°C 76% 1.9 mph S3.1 kmh S 7.4 mph11.9 kmh 29.39 in995.3 mb 0.00 in0.0 mm 0.00 in0.0 mm 0.00 in0.0 mm
07:45 AM 81.0°F27.2°C 71.9°F22.2°C 74% 0.7 mph SW1.1 kmh SW 2.5 mph4.0 kmh 29.39 in995.3 mb 0.00 in0.0 mm 0.00 in0.0 mm 0.00 in0.0 mm
07:50 AM 81.0°F27.2°C 71.5°F21.9°C 73% 1.2 mph S1.9 kmh S 7.4 mph11.9 kmh 29.39 in995.3 mb 0.00 in0.0 mm 0.00 in0.0 mm 0.00 in0.0 mm
07:55 AM 81.0°F27.2°C 71.1°F21.7°C 72% 0.5 mph SSW0.8 kmh SSW 2.5 mph4.0 kmh 29.39 in995.3 mb 0.00 in0.0 mm 0.00 in0.0 mm 0.00 in0.0 mm
08:00 AM 81.3°F27.4°C 71.0°F21.7°C 71% 1.5 mph S2.4 kmh S 4.9 mph7.9 kmh 29.39 in995.3 mb 0.00 in0.0 mm 0.00 in0.0 mm 0.00 in0.0 mm
08:05 AM 82.0°F27.8°C 71.4°F21.9°C 70% 1.1 mph SSW1.8 kmh SSW 4.9 mph7.9 kmh 29.39 in995.3 mb 0.00 in0.0 mm 0.00 in0.0 mm 0.00 in0.0 mm
08:10 AM 82.0°F27.8°C 70.8°F21.6°C 69% 0.8 mph S1.3 kmh S 2.5 mph4.0 kmh 29.39 in995.3 mb 0.00 in0.0 mm 0.00 in0.0 mm 0.00 in0.0 mm
08:15 AM 82.1°F27.8°C 70.4°F21.3°C 68% 1.3 mph S2.1 kmh S 7.4 mph11.9 kmh 29.39 in995.3 mb 0.00 in0.0 mm 0.00 in0.0 mm 0.00 in0.0 mm
08:20 AM 82.2°F27.9°C 70.4°F21.3°C 68% 0.8 mph SW1.3 kmh SW 4.9 mph7.9 kmh 29.39 in995.3 mb 0.00 in0.0 mm 0.00 in0.0 mm 0.00 in0.0 mm
08:25 AM 82.9°F28.3°C 70.8°F21.6°C 67% 2.3 mph WSW3.7 kmh WSW 4.9 mph7.9 kmh 29.39 in995.3 mb 0.00 in0.0 mm 0.00 in0.0 mm 0.00 in0.0 mm
08:30 AM 82.9°F28.3°C 70.8°F21.6°C 67% 1.0 mph WSW1.6 kmh WSW 2.5 mph4.0 kmh 29.39 in995.3 mb 0.00 in0.0 mm 0.00 in0.0 mm 0.00 in0.0 mm
08:35 AM 82.9°F28.3°C 70.6°F21.4°C 66% 0.8 mph WSW1.3 kmh WSW 2.5 mph4.0 kmh 29.39 in995.3 mb 0.00 in0.0 mm 0.00 in0.0 mm 0.00 in0.0 mm
08:40 AM 83.1°F28.4°C 70.5°F21.4°C 66% 2.7 mph SSW4.3 kmh SSW 4.9 mph7.9 kmh 29.39 in995.3 mb 0.00 in0.0 mm 0.00 in0.0 mm 0.00 in0.0 mm
08:45 AM 83.8°F28.8°C 71.2°F21.8°C 66% 0.9 mph WSW1.4 kmh WSW 2.5 mph4.0 kmh 29.39 in995.3 mb 0.00 in0.0 mm 0.00 in0.0 mm 0.00 in0.0 mm
08:50 AM 83.8°F28.8°C 70.2°F21.2°C 64% 0.3 mph S0.5 kmh S 2.5 mph4.0 kmh 29.39 in995.3 mb 0.00 in0.0 mm 0.00 in0.0 mm 0.00 in0.0 mm
08:55 AM 84.0°F28.9°C 69.6°F20.9°C 62% 1.1 mph SSW1.8 kmh SSW 2.5 mph4.0 kmh 29.40 in995.6 mb 0.00 in0.0 mm 0.00 in0.0 mm 0.00 in0.0 mm
09:00 AM 84.3°F29.1°C 69.5°F20.8°C 61% 0.6 mph SSW1.0 kmh SSW 2.5 mph4.0 kmh 29.39 in995.3 mb 0.00 in0.0 mm 0.00 in0.0 mm 0.00 in0.0 mm
09:05 AM 86.1°F30.1°C 70.6°F21.4°C 60% 0.9 mph SSW1.4 kmh SSW 4.9 mph7.9 kmh 29.40 in995.6 mb 0.00 in0.0 mm 0.00 in0.0 mm 0.00 in0.0 mm
09:10 AM 86.0°F30.0°C 70.9°F21.6°C 61% 0.2 mph S0.3 kmh S 2.5 mph4.0 kmh 29.40 in995.6 mb 0.00 in0.0 mm 0.00 in0.0 mm 0.00 in0.0 mm
09:15 AM 86.0°F30.0°C 70.9°F21.6°C 61% 0.2 mph W0.3 kmh W 2.5 mph4.0 kmh 29.40 in995.6 mb 0.00 in0.0 mm 0.00 in0.0 mm 0.00 in0.0 mm
09:20 AM 86.0°F30.0°C 70.9°F21.6°C 61% 0.1 mph W0.2 kmh W 2.5 mph4.0 kmh 29.40 in995.6 mb 0.00 in0.0 mm 0.00 in0.0 mm 0.00 in0.0 mm
09:25 AM 86.0°F30.0°C 70.5°F21.4°C 60% Calm Calm 2.5 mph4.0 kmh 29.41 in995.9 mb 0.00 in0.0 mm 0.00 in0.0 mm 0.00 in0.0 mm
09:30 AM 86.1°F30.1°C 69.9°F21.1°C 59% Calm Calm 2.5 mph4.0 kmh 29.41 in995.9 mb 0.00 in0.0 mm 0.00 in0.0 mm 0.00 in0.0 mm
09:35 AM 86.3°F30.2°C 69.8°F21.0°C 58% 0.5 mph WSW0.8 kmh WSW 4.9 mph7.9 kmh 29.41 in995.9 mb 0.00 in0.0 mm 0.00 in0.0 mm 0.00 in0.0 mm
09:40 AM 86.5°F30.3°C 70.0°F21.1°C 58% 1.7 mph WSW2.7 kmh WSW 4.9 mph7.9 kmh 29.40 in995.6 mb 0.00 in0.0 mm 0.00 in0.0 mm 0.00 in0.0 mm
09:45 AM 86.9°F30.5°C 70.5°F21.4°C 58% 0.7 mph SW1.1 kmh SW 2.5 mph4.0 kmh 29.40 in995.6 mb 0.00 in0.0 mm 0.00 in0.0 mm 0.00 in0.0 mm
09:50 AM 86.9°F30.5°C 70.6°F21.4°C 59% 1.0 mph WSW1.6 kmh WSW 4.9 mph7.9 kmh 29.40 in995.6 mb 0.00 in0.0 mm 0.00 in0.0 mm 0.00 in0.0 mm
09:55 AM 86.9°F30.5°C 70.5°F21.4°C 58% 1.5 mph SW2.4 kmh SW 4.9 mph7.9 kmh 29.40 in995.6 mb 0.00 in0.0 mm 0.00 in0.0 mm 0.00 in0.0 mm
10:00 AM 87.1°F30.6°C 70.2°F21.2°C 57% 0.3 mph WSW0.5 kmh WSW 2.5 mph4.0 kmh 29.39 in995.3 mb 0.00 in0.0 mm 0.00 in0.0 mm 0.00 in0.0 mm
10:05 AM 88.0°F31.1°C 71.2°F21.8°C 58% 1.3 mph S2.1 kmh S 4.9 mph7.9 kmh 29.40 in995.6 mb 0.00 in0.0 mm 0.00 in0.0 mm 0.00 in0.0 mm
10:10 AM 88.0°F31.1°C 70.9°F21.6°C 57% 1.3 mph S2.1 kmh S 4.9 mph7.9 kmh 29.40 in995.6 mb 0.00 in0.0 mm 0.00 in0.0 mm 0.00 in0.0 mm
10:15 AM 88.0°F31.1°C 70.2°F21.2°C 56% 0.1 mph SW0.2 kmh SW 2.5 mph4.0 kmh 29.39 in995.3 mb 0.00 in0.0 mm 0.00 in0.0 mm 0.00 in0.0 mm
10:20 AM 88.2°F31.2°C 69.4°F20.8°C 54% 1.3 mph SW2.1 kmh SW 4.9 mph7.9 kmh 29.40 in995.6 mb 0.00 in0.0 mm 0.00 in0.0 mm 0.00 in0.0 mm
10:25 AM 89.2°F31.8°C 70.8°F21.6°C 55% 0.3 mph W0.5 kmh W 2.5 mph4.0 kmh 29.40 in995.6 mb 0.00 in0.0 mm 0.00 in0.0 mm 0.00 in0.0 mm
10:30 AM 89.2°F31.8°C 70.2°F21.2°C 54% 0.4 mph WSW0.6 kmh WSW 2.5 mph4.0 kmh 29.40 in995.6 mb 0.00 in0.0 mm 0.00 in0.0 mm 0.00 in0.0 mm
10:35 AM 89.3°F31.8°C 69.4°F20.8°C 52% 0.8 mph WSW1.3 kmh WSW 2.5 mph4.0 kmh 29.39 in995.3 mb 0.00 in0.0 mm 0.00 in0.0 mm 0.00 in0.0 mm
10:40 AM 89.5°F31.9°C 68.8°F20.4°C 51% 1.0 mph SW1.6 kmh SW 4.9 mph7.9 kmh 29.39 in995.3 mb 0.00 in0.0 mm 0.00 in0.0 mm 0.00 in0.0 mm
10:45 AM 90.2°F32.3°C 69.6°F20.9°C 51% 0.5 mph SSW0.8 kmh SSW 4.9 mph7.9 kmh 29.40 in995.6 mb 0.00 in0.0 mm 0.00 in0.0 mm 0.00 in0.0 mm
10:50 AM 90.5°F32.5°C 70.2°F21.2°C 52% 0.5 mph SW0.8 kmh SW 2.5 mph4.0 kmh 29.39 in995.3 mb 0.00 in0.0 mm 0.00 in0.0 mm 0.00 in0.0 mm
10:55 AM 90.7°F32.6°C 69.9°F21.1°C 51% 0.7 mph WSW1.1 kmh WSW 2.5 mph4.0 kmh 29.40 in995.6 mb 0.00 in0.0 mm 0.00 in0.0 mm 0.00 in0.0 mm
11:00 AM 90.9°F32.7°C 70.3°F21.3°C 51% 0.8 mph SW1.3 kmh SW 2.5 mph4.0 kmh 29.39 in995.3 mb 0.00 in0.0 mm 0.00 in0.0 mm 0.00 in0.0 mm
11:05 AM 92.5°F33.6°C 71.1°F21.7°C 50% 3.4 mph SSE5.5 kmh SSE 4.9 mph7.9 kmh 29.40 in995.6 mb 0.00 in0.0 mm 0.00 in0.0 mm 0.00 in0.0 mm
11:10 AM 92.6°F33.7°C 71.7°F22.1°C 51% 1.1 mph SSE1.8 kmh SSE 4.9 mph7.9 kmh 29.40 in995.6 mb 0.00 in0.0 mm 0.00 in0.0 mm 0.00 in0.0 mm
11:15 AM 92.7°F33.7°C 69.8°F21.0°C 48% 1.7 mph SW2.7 kmh SW 4.9 mph7.9 kmh 29.40 in995.6 mb 0.00 in0.0 mm 0.00 in0.0 mm 0.00 in0.0 mm
11:20 AM 92.7°F33.7°C 69.4°F20.8°C 47% 0.4 mph SSW0.6 kmh SSW 4.9 mph7.9 kmh 29.40 in995.6 mb 0.00 in0.0 mm 0.00 in0.0 mm 0.00 in0.0 mm
11:25 AM 92.5°F33.6°C 69.2°F20.7°C 47% 1.9 mph SSE3.1 kmh SSE 7.4 mph11.9 kmh 29.40 in995.6 mb 0.00 in0.0 mm 0.00 in0.0 mm 0.00 in0.0 mm
11:30 AM 92.4°F33.6°C 68.9°F20.5°C 46% 0.4 mph SW0.6 kmh SW 2.5 mph4.0 kmh 29.39 in995.3 mb 0.00 in0.0 mm 0.00 in0.0 mm 0.00 in0.0 mm
11:35 AM 92.6°F33.7°C 68.2°F20.1°C 45% 0.9 mph SW1.4 kmh SW 2.5 mph4.0 kmh 29.39 in995.3 mb 0.00 in0.0 mm 0.00 in0.0 mm 0.00 in0.0 mm
11:40 AM 92.7°F33.7°C 70.0°F21.1°C 48% 0.5 mph W0.8 kmh W 2.5 mph4.0 kmh 29.39 in995.3 mb 0.00 in0.0 mm 0.00 in0.0 mm 0.00 in0.0 mm
11:45 AM 93.3°F34.1°C 70.2°F21.2°C 47% 0.6 mph WSW1.0 kmh WSW 2.5 mph4.0 kmh 29.39 in995.3 mb 0.00 in0.0 mm 0.00 in0.0 mm 0.00 in0.0 mm
11:50 AM 93.5°F34.2°C 71.2°F21.8°C 49% 1.4 mph WSW2.3 kmh WSW 4.9 mph7.9 kmh 29.39 in995.3 mb 0.00 in0.0 mm 0.00 in0.0 mm 0.00 in0.0 mm
11:55 AM 93.4°F34.1°C 70.6°F21.4°C 48% 0.1 mph WSW0.2 kmh WSW 2.5 mph4.0 kmh 29.38 in994.9 mb 0.00 in0.0 mm 0.00 in0.0 mm 0.00 in0.0 mm
12:00 PM 93.3°F34.1°C 70.8°F21.6°C 48% 1.4 mph W2.3 kmh W 4.9 mph7.9 kmh 29.39 in995.3 mb 0.00 in0.0 mm 0.00 in0.0 mm 0.00 in0.0 mm
12:05 PM 93.6°F34.2°C 69.9°F21.1°C 46% Calm Calm -- 29.38 in994.9 mb 0.00 in0.0 mm 0.00 in0.0 mm 0.00 in0.0 mm
12:10 PM 93.9°F34.4°C 69.4°F20.8°C 45% 0.9 mph WSW1.4 kmh WSW 4.9 mph7.9 kmh 29.38 in994.9 mb 0.00 in0.0 mm 0.00 in0.0 mm 0.00 in0.0 mm
12:15 PM 93.8°F34.3°C 70.6°F21.4°C 47% 0.4 mph W0.6 kmh W 2.5 mph4.0 kmh 29.38 in994.9 mb 0.00 in0.0 mm 0.00 in0.0 mm 0.00 in0.0 mm
12:20 PM 93.7°F34.3°C 70.3°F21.3°C 47% 1.1 mph W1.8 kmh W 4.9 mph7.9 kmh 29.38 in994.9 mb 0.00 in0.0 mm 0.00 in0.0 mm 0.00 in0.0 mm
12:25 PM 93.3°F34.1°C 70.6°F21.4°C 48% 0.4 mph WSW0.6 kmh WSW 2.5 mph4.0 kmh 29.38 in994.9 mb 0.00 in0.0 mm 0.00 in0.0 mm 0.00 in0.0 mm
12:30 PM 92.8°F33.8°C 69.9°F21.1°C 48% 0.8 mph WNW1.3 kmh WNW 2.5 mph4.0 kmh 29.38 in994.9 mb 0.00 in0.0 mm 0.00 in0.0 mm 0.00 in0.0 mm
12:35 PM 92.8°F33.8°C 70.2°F21.2°C 48% 1.3 mph W2.1 kmh W 2.5 mph4.0 kmh 29.38 in994.9 mb 0.00 in0.0 mm 0.00 in0.0 mm 0.00 in0.0 mm
12:40 PM 92.9°F33.8°C 68.7°F20.4°C 46% 1.6 mph S2.6 kmh S 4.9 mph7.9 kmh 29.37 in994.6 mb 0.00 in0.0 mm 0.00 in0.0 mm 0.00 in0.0 mm
12:45 PM 94.0°F34.4°C 68.6°F20.3°C 44% 1.9 mph SE3.1 kmh SE 7.4 mph11.9 kmh 29.37 in994.6 mb 0.00 in0.0 mm 0.00 in0.0 mm 0.00 in0.0 mm
12:50 PM 95.4°F35.2°C 69.6°F20.9°C 43% 1.2 mph E1.9 kmh E 2.5 mph4.0 kmh 29.37 in994.6 mb 0.00 in0.0 mm 0.00 in0.0 mm 0.00 in0.0 mm
12:55 PM 95.3°F35.2°C 69.8°F21.0°C 44% 0.2 mph W0.3 kmh W 2.5 mph4.0 kmh 29.37 in994.6 mb 0.00 in0.0 mm 0.00 in0.0 mm 0.00 in0.0 mm
01:00 PM 95.2°F35.1°C 70.1°F21.2°C 44% 0.4 mph W0.6 kmh W 2.5 mph4.0 kmh 29.37 in994.6 mb 0.00 in0.0 mm 0.00 in0.0 mm 0.00 in0.0 mm
01:05 PM 95.6°F35.3°C 69.7°F20.9°C 43% Calm Calm 2.5 mph4.0 kmh 29.36 in994.2 mb 0.00 in0.0 mm 0.00 in0.0 mm 0.00 in0.0 mm
01:10 PM 96.2°F35.7°C 67.4°F19.7°C 39% 0.7 mph SW1.1 kmh SW 4.9 mph7.9 kmh 29.36 in994.2 mb 0.00 in0.0 mm 0.00 in0.0 mm 0.00 in0.0 mm
01:15 PM 96.3°F35.7°C 68.0°F20.0°C 40% 2.6 mph S4.2 kmh S 4.9 mph7.9 kmh 29.36 in994.2 mb 0.00 in0.0 mm 0.00 in0.0 mm 0.00 in0.0 mm
01:20 PM 96.2°F35.7°C 68.7°F20.4°C 41% 4.3 mph SSW6.9 kmh SSW 9.8 mph15.8 kmh 29.36 in994.2 mb 0.00 in0.0 mm 0.00 in0.0 mm 0.00 in0.0 mm
01:25 PM 95.9°F35.5°C 68.3°F20.2°C 41% 3.3 mph SSE5.3 kmh SSE 7.4 mph11.9 kmh 29.35 in993.9 mb 0.00 in0.0 mm 0.00 in0.0 mm 0.00 in0.0 mm
01:30 PM 95.5°F35.3°C 66.4°F19.1°C 39% 1.9 mph SE3.1 kmh SE 4.9 mph7.9 kmh 29.35 in993.9 mb 0.00 in0.0 mm 0.00 in0.0 mm 0.00 in0.0 mm
01:35 PM 95.7°F35.4°C 65.9°F18.8°C 38% 1.5 mph S2.4 kmh S 7.4 mph11.9 kmh 29.35 in993.9 mb 0.00 in0.0 mm 0.00 in0.0 mm 0.00 in0.0 mm
01:40 PM 96.0°F35.6°C 65.9°F18.8°C 38% 2.9 mph S4.7 kmh S 7.4 mph11.9 kmh 29.35 in993.9 mb 0.00 in0.0 mm 0.00 in0.0 mm 0.00 in0.0 mm
01:45 PM 96.4°F35.8°C 67.1°F19.5°C 39% 1.7 mph E2.7 kmh E 4.9 mph7.9 kmh 29.35 in993.9 mb 0.00 in0.0 mm 0.00 in0.0 mm 0.00 in0.0 mm
01:50 PM 97.5°F36.4°C 66.8°F19.3°C 37% 2.4 mph SSW3.9 kmh SSW 4.9 mph7.9 kmh 29.34 in993.6 mb 0.00 in0.0 mm 0.00 in0.0 mm 0.00 in0.0 mm
01:55 PM 97.3°F36.3°C 67.7°F19.8°C 38% 3.6 mph ESE5.8 kmh ESE 7.4 mph11.9 kmh 29.34 in993.6 mb 0.00 in0.0 mm 0.00 in0.0 mm 0.00 in0.0 mm
02:00 PM 97.0°F36.1°C 69.0°F20.6°C 40% 2.6 mph SSE4.2 kmh SSE 4.9 mph7.9 kmh 29.34 in993.6 mb 0.00 in0.0 mm 0.00 in0.0 mm 0.00 in0.0 mm
02:05 PM 96.5°F35.8°C 69.2°F20.7°C 41% 1.6 mph S2.6 kmh S 4.9 mph7.9 kmh 29.34 in993.6 mb 0.00 in0.0 mm 0.00 in0.0 mm 0.00 in0.0 mm
02:10 PM 96.1°F35.6°C 68.1°F20.1°C 40% 2.0 mph S3.2 kmh S 7.4 mph11.9 kmh 29.34 in993.6 mb 0.00 in0.0 mm 0.00 in0.0 mm 0.00 in0.0 mm
02:15 PM 96.1°F35.6°C 66.8°F19.3°C 39% 2.6 mph SE4.2 kmh SE 7.4 mph11.9 kmh 29.34 in993.6 mb 0.00 in0.0 mm 0.00 in0.0 mm 0.00 in0.0 mm
02:20 PM 96.2°F35.7°C 67.2°F19.6°C 39% 3.9 mph S6.3 kmh S 7.4 mph11.9 kmh 29.34 in993.6 mb 0.00 in0.0 mm 0.00 in0.0 mm 0.00 in0.0 mm
02:25 PM 96.3°F35.7°C 67.9°F19.9°C 40% 2.7 mph S4.3 kmh S 7.4 mph11.9 kmh 29.34 in993.6 mb 0.00 in0.0 mm 0.00 in0.0 mm 0.00 in0.0 mm
02:30 PM 96.4°F35.8°C 68.1°F20.1°C 40% 4.0 mph SE6.4 kmh SE 7.4 mph11.9 kmh 29.34 in993.6 mb 0.00 in0.0 mm 0.00 in0.0 mm 0.00 in0.0 mm
02:35 PM 96.3°F35.7°C 68.2°F20.1°C 40% 1.1 mph S1.8 kmh S 4.9 mph7.9 kmh 29.34 in993.6 mb 0.00 in0.0 mm 0.00 in0.0 mm 0.00 in0.0 mm
02:40 PM 96.3°F35.7°C 67.6°F19.8°C 40% 2.1 mph S3.4 kmh S 7.4 mph11.9 kmh 29.34 in993.6 mb 0.00 in0.0 mm 0.00 in0.0 mm 0.00 in0.0 mm
02:45 PM 96.0°F35.6°C 68.0°F20.0°C 40% 3.4 mph SE5.5 kmh SE 7.4 mph11.9 kmh 29.33 in993.2 mb 0.00 in0.0 mm 0.00 in0.0 mm 0.00 in0.0 mm
02:50 PM 95.4°F35.2°C 68.3°F20.2°C 42% 2.5 mph SE4.0 kmh SE 4.9 mph7.9 kmh 29.33 in993.2 mb 0.00 in0.0 mm 0.00 in0.0 mm 0.00 in0.0 mm
02:55 PM 95.5°F35.3°C 67.9°F19.9°C 41% 2.6 mph S4.2 kmh S 7.4 mph11.9 kmh 29.33 in993.2 mb 0.00 in0.0 mm 0.00 in0.0 mm 0.00 in0.0 mm
03:00 PM 95.7°F35.4°C 67.7°F19.8°C 40% 4.2 mph SSE6.8 kmh SSE 9.8 mph15.8 kmh 29.33 in993.2 mb 0.00 in0.0 mm 0.00 in0.0 mm 0.00 in0.0 mm
03:05 PM 95.8°F35.4°C 66.9°F19.4°C 39% 4.3 mph S6.9 kmh S 7.4 mph11.9 kmh 29.33 in993.2 mb 0.00 in0.0 mm 0.00 in0.0 mm 0.00 in0.0 mm
03:10 PM 96.1°F35.6°C 67.6°F19.8°C 40% 2.4 mph S3.9 kmh S 4.9 mph7.9 kmh 29.33 in993.2 mb 0.00 in0.0 mm 0.00 in0.0 mm 0.00 in0.0 mm
03:15 PM 96.2°F35.7°C 66.9°F19.4°C 39% 2.2 mph SE3.5 kmh SE 4.9 mph7.9 kmh 29.33 in993.2 mb 0.00 in0.0 mm 0.00 in0.0 mm 0.00 in0.0 mm
03:20 PM 96.3°F35.7°C 67.0°F19.4°C 39% 2.3 mph SE3.7 kmh SE 4.9 mph7.9 kmh 29.32 in992.9 mb 0.00 in0.0 mm 0.00 in0.0 mm 0.00 in0.0 mm
03:25 PM 96.3°F35.7°C 68.1°F20.1°C 40% 1.1 mph SE1.8 kmh SE 4.9 mph7.9 kmh 29.32 in992.9 mb 0.00 in0.0 mm 0.00 in0.0 mm 0.00 in0.0 mm
03:30 PM 96.1°F35.6°C 67.8°F19.9°C 40% 1.9 mph SE3.1 kmh SE 4.9 mph7.9 kmh 29.32 in992.9 mb 0.00 in0.0 mm 0.00 in0.0 mm 0.00 in0.0 mm
03:35 PM 96.1°F35.6°C 68.1°F20.1°C 40% 4.7 mph SSE7.6 kmh SSE 9.8 mph15.8 kmh 29.31 in992.6 mb 0.00 in0.0 mm 0.00 in0.0 mm 0.00 in0.0 mm
03:40 PM 95.9°F35.5°C 68.1°F20.1°C 41% 2.0 mph SE3.2 kmh SE 4.9 mph7.9 kmh 29.31 in992.6 mb 0.00 in0.0 mm 0.00 in0.0 mm 0.00 in0.0 mm
03:45 PM 95.9°F35.5°C 68.4°F20.2°C 41% 5.4 mph SE8.7 kmh SE 9.8 mph15.8 kmh 29.31 in992.6 mb 0.00 in0.0 mm 0.00 in0.0 mm 0.00 in0.0 mm
03:50 PM 96.4°F35.8°C 68.1°F20.1°C 40% 5.5 mph SSE8.9 kmh SSE 9.8 mph15.8 kmh 29.30 in992.2 mb 0.00 in0.0 mm 0.00 in0.0 mm 0.00 in0.0 mm
03:55 PM 96.3°F35.7°C 67.5°F19.7°C 39% 1.9 mph S3.1 kmh S 4.9 mph7.9 kmh 29.30 in992.2 mb 0.00 in0.0 mm 0.00 in0.0 mm 0.00 in0.0 mm
04:00 PM 96.4°F35.8°C 66.7°F19.3°C 38% 4.5 mph SSE7.2 kmh SSE 7.4 mph11.9 kmh 29.30 in992.2 mb 0.00 in0.0 mm 0.00 in0.0 mm 0.00 in0.0 mm
04:05 PM 96.4°F35.8°C 65.7°F18.7°C 37% 2.3 mph S3.7 kmh S 4.9 mph7.9 kmh 29.30 in992.2 mb 0.00 in0.0 mm 0.00 in0.0 mm 0.00 in0.0 mm
04:10 PM 97.9°F36.6°C 67.1°F19.5°C 37% 6.7 mph ESE10.8 kmh ESE 12.3 mph19.8 kmh 29.30 in992.2 mb 0.00 in0.0 mm 0.00 in0.0 mm 0.00 in0.0 mm
04:15 PM 97.6°F36.4°C 68.0°F20.0°C 38% 3.8 mph SSE6.1 kmh SSE 7.4 mph11.9 kmh 29.29 in991.9 mb 0.00 in0.0 mm 0.00 in0.0 mm 0.00 in0.0 mm
04:20 PM 97.3°F36.3°C 66.9°F19.4°C 37% 3.6 mph S5.8 kmh S 9.8 mph15.8 kmh 29.29 in991.9 mb 0.00 in0.0 mm 0.00 in0.0 mm 0.00 in0.0 mm
04:25 PM 97.3°F36.3°C 65.4°F18.6°C 36% 4.3 mph SE6.9 kmh SE 7.4 mph11.9 kmh 29.29 in991.9 mb 0.00 in0.0 mm 0.00 in0.0 mm 0.00 in0.0 mm
04:30 PM 97.5°F36.4°C 65.8°F18.8°C 36% 6.0 mph E9.7 kmh E 12.3 mph19.8 kmh 29.29 in991.9 mb 0.00 in0.0 mm 0.00 in0.0 mm 0.00 in0.0 mm
04:35 PM 97.6°F36.4°C 65.4°F18.6°C 35% 2.8 mph SE4.5 kmh SE 4.9 mph7.9 kmh 29.29 in991.9 mb 0.00 in0.0 mm 0.00 in0.0 mm 0.00 in0.0 mm
04:40 PM 97.9°F36.6°C 63.5°F17.5°C 33% 1.4 mph SSW2.3 kmh SSW 4.9 mph7.9 kmh 29.29 in991.9 mb 0.00 in0.0 mm 0.00 in0.0 mm 0.00 in0.0 mm
04:45 PM 98.3°F36.8°C 63.9°F17.7°C 33% 4.0 mph SSE6.4 kmh SSE 9.8 mph15.8 kmh 29.29 in991.9 mb 0.00 in0.0 mm 0.00 in0.0 mm 0.00 in0.0 mm
04:50 PM 98.1°F36.7°C 64.6°F18.1°C 34% 6.2 mph S10.0 kmh S 15.0 mph24.1 kmh 29.29 in991.9 mb 0.00 in0.0 mm 0.00 in0.0 mm 0.00 in0.0 mm
04:55 PM 98.1°F36.7°C 65.0°F18.3°C 34% 4.3 mph SSE6.9 kmh SSE 9.8 mph15.8 kmh 29.29 in991.9 mb 0.00 in0.0 mm 0.00 in0.0 mm 0.00 in0.0 mm
05:00 PM 97.9°F36.6°C 65.1°F18.4°C 34% 5.6 mph S9.0 kmh S 9.8 mph15.8 kmh 29.29 in991.9 mb 0.00 in0.0 mm 0.00 in0.0 mm 0.00 in0.0 mm
05:05 PM 97.8°F36.6°C 65.3°F18.5°C 35% 4.7 mph S7.6 kmh S 9.8 mph15.8 kmh 29.28 in991.5 mb 0.00 in0.0 mm 0.00 in0.0 mm 0.00 in0.0 mm
05:10 PM 96.4°F35.8°C 65.0°F18.3°C 36% 3.6 mph SE5.8 kmh SE 7.4 mph11.9 kmh 29.28 in991.5 mb 0.00 in0.0 mm 0.00 in0.0 mm 0.00 in0.0 mm
05:15 PM 96.4°F35.8°C 64.6°F18.1°C 36% 5.3 mph SE8.5 kmh SE 9.8 mph15.8 kmh 29.28 in991.5 mb 0.00 in0.0 mm 0.00 in0.0 mm 0.00 in0.0 mm
05:20 PM 96.6°F35.9°C 64.8°F18.2°C 36% 6.4 mph SSE10.3 kmh SSE 15.0 mph24.1 kmh 29.28 in991.5 mb 0.00 in0.0 mm 0.00 in0.0 mm 0.00 in0.0 mm
05:25 PM 96.6°F35.9°C 64.8°F18.2°C 36% 3.6 mph SSE5.8 kmh SSE 9.8 mph15.8 kmh 29.28 in991.5 mb 0.00 in0.0 mm 0.00 in0.0 mm 0.00 in0.0 mm
05:30 PM 97.9°F36.6°C 65.3°F18.5°C 35% 4.4 mph S7.1 kmh S 7.4 mph11.9 kmh 29.28 in991.5 mb 0.00 in0.0 mm 0.00 in0.0 mm 0.00 in0.0 mm
05:35 PM 97.9°F36.6°C 65.5°F18.6°C 35% 5.4 mph SSE8.7 kmh SSE 9.8 mph15.8 kmh 29.27 in991.2 mb 0.00 in0.0 mm 0.00 in0.0 mm 0.00 in0.0 mm
05:40 PM 97.7°F36.5°C 66.0°F18.9°C 36% 5.8 mph SSE9.3 kmh SSE 12.3 mph19.8 kmh 29.27 in991.2 mb 0.00 in0.0 mm 0.00 in0.0 mm 0.00 in0.0 mm
05:45 PM 97.6°F36.4°C 66.6°F19.2°C 37% 6.1 mph SE9.8 kmh SE 9.8 mph15.8 kmh 29.27 in991.2 mb 0.00 in0.0 mm 0.00 in0.0 mm 0.00 in0.0 mm
05:50 PM 96.6°F35.9°C 66.0°F18.9°C 37% 7.1 mph SE11.4 kmh SE 15.0 mph24.1 kmh 29.26 in990.9 mb 0.00 in0.0 mm 0.00 in0.0 mm 0.00 in0.0 mm
05:55 PM 96.1°F35.6°C 65.6°F18.7°C 37% 6.4 mph SSE10.3 kmh SSE 12.3 mph19.8 kmh 29.26 in990.9 mb 0.00 in0.0 mm 0.00 in0.0 mm 0.00 in0.0 mm
06:00 PM 96.1°F35.6°C 65.6°F18.7°C 37% 5.6 mph SE9.0 kmh SE 12.3 mph19.8 kmh 29.26 in990.9 mb 0.00 in0.0 mm 0.00 in0.0 mm 0.00 in0.0 mm
06:05 PM 96.1°F35.6°C 65.7°F18.7°C 37% 5.1 mph SSE8.2 kmh SSE 12.3 mph19.8 kmh 29.26 in990.9 mb 0.00 in0.0 mm 0.00 in0.0 mm 0.00 in0.0 mm
06:10 PM 96.4°F35.8°C 65.5°F18.6°C 37% 3.6 mph SE5.8 kmh SE 7.4 mph11.9 kmh 29.25 in990.5 mb 0.00 in0.0 mm 0.00 in0.0 mm 0.00 in0.0 mm
06:15 PM 96.6°F35.9°C 66.1°F18.9°C 37% 8.6 mph SSE13.8 kmh SSE 12.3 mph19.8 kmh 29.25 in990.5 mb 0.00 in0.0 mm 0.00 in0.0 mm 0.00 in0.0 mm
06:20 PM 96.5°F35.8°C 66.0°F18.9°C 37% 5.9 mph SE9.5 kmh SE 12.3 mph19.8 kmh 29.25 in990.5 mb 0.00 in0.0 mm 0.00 in0.0 mm 0.00 in0.0 mm
06:25 PM 96.3°F35.7°C 65.9°F18.8°C 37% 6.9 mph SSE11.1 kmh SSE 12.3 mph19.8 kmh 29.25 in990.5 mb 0.00 in0.0 mm 0.00 in0.0 mm 0.00 in0.0 mm
06:30 PM 95.6°F35.3°C 65.2°F18.4°C 37% 7.4 mph SSE11.9 kmh SSE 15.0 mph24.1 kmh 29.25 in990.5 mb 0.00 in0.0 mm 0.00 in0.0 mm 0.00 in0.0 mm
06:35 PM 95.2°F35.1°C 65.3°F18.5°C 38% 5.5 mph SSE8.9 kmh SSE 12.3 mph19.8 kmh 29.25 in990.5 mb 0.00 in0.0 mm 0.00 in0.0 mm 0.00 in0.0 mm
06:40 PM 95.2°F35.1°C 65.8°F18.8°C 38% 4.6 mph SE7.4 kmh SE 7.4 mph11.9 kmh 29.25 in990.5 mb 0.00 in0.0 mm 0.00 in0.0 mm 0.00 in0.0 mm
06:45 PM 95.0°F35.0°C 65.6°F18.7°C 38% 5.8 mph S9.3 kmh S 9.8 mph15.8 kmh 29.25 in990.5 mb 0.00 in0.0 mm 0.00 in0.0 mm 0.00 in0.0 mm
06:50 PM 95.0°F35.0°C 64.8°F18.2°C 37% 7.0 mph S11.3 kmh S 15.0 mph24.1 kmh 29.25 in990.5 mb 0.00 in0.0 mm 0.00 in0.0 mm 0.00 in0.0 mm
06:55 PM 95.0°F35.0°C 64.2°F17.9°C 36% 8.6 mph SE13.8 kmh SE 12.3 mph19.8 kmh 29.25 in990.5 mb 0.00 in0.0 mm 0.00 in0.0 mm 0.00 in0.0 mm
07:05 PM 94.8°F34.9°C 64.4°F18.0°C 37% 8.2 mph SE13.2 kmh SE 15.0 mph24.1 kmh 29.25 in990.5 mb 0.00 in0.0 mm 0.00 in0.0 mm 0.00 in0.0 mm
08:25 PM 91.6°F33.1°C 66.6°F19.2°C 44% 5.8 mph ESE9.3 kmh ESE 9.8 mph15.8 kmh 29.26 in990.9 mb 0.00 in0.0 mm 0.00 in0.0 mm 0.00 in0.0 mm
10:30 PM 88.5°F31.4°C 68.1°F20.1°C 51% 5.1 mph SSE8.2 kmh SSE 7.4 mph11.9 kmh 29.30 in992.2 mb 0.00 in0.0 mm 0.00 in0.0 mm 0.00 in0.0 mm
10:35 PM 88.2°F31.2°C 68.3°F20.2°C 52% 7.8 mph SSE12.6 kmh SSE 15.0 mph24.1 kmh 29.30 in992.2 mb 0.00 in0.0 mm 0.00 in0.0 mm 0.00 in0.0 mm
10:40 PM 88.2°F31.2°C 68.9°F20.5°C 53% 11.3 mph SE18.2 kmh SE 19.9 mph32.0 kmh 29.29 in991.9 mb 0.00 in0.0 mm 0.00 in0.0 mm 0.00 in0.0 mm
10:45 PM 88.2°F31.2°C 69.1°F20.6°C 53% 7.6 mph SSE12.2 kmh SSE 9.8 mph15.8 kmh 29.29 in991.9 mb 0.00 in0.0 mm 0.00 in0.0 mm 0.00 in0.0 mm
10:50 PM 88.2°F31.2°C 69.5°F20.8°C 54% 5.4 mph SE8.7 kmh SE 9.8 mph15.8 kmh 29.30 in992.2 mb 0.00 in0.0 mm 0.00 in0.0 mm 0.00 in0.0 mm
10:55 PM 87.5°F30.8°C 69.9°F21.1°C 56% 7.9 mph S12.7 kmh S 12.3 mph19.8 kmh 29.30 in992.2 mb 0.00 in0.0 mm 0.00 in0.0 mm 0.00 in0.0 mm
11:00 PM 87.4°F30.8°C 70.3°F21.3°C 57% 6.9 mph SE11.1 kmh SE 12.3 mph19.8 kmh 29.30 in992.2 mb 0.00 in0.0 mm 0.00 in0.0 mm 0.00 in0.0 mm
11:05 PM 87.4°F30.8°C 70.5°F21.4°C 58% 7.3 mph SE11.7 kmh SE 15.0 mph24.1 kmh 29.30 in992.2 mb 0.00 in0.0 mm 0.00 in0.0 mm 0.00 in0.0 mm
11:10 PM 87.3°F30.7°C 70.8°F21.6°C 58% 6.4 mph SSE10.3 kmh SSE 12.3 mph19.8 kmh 29.30 in992.2 mb 0.00 in0.0 mm 0.00 in0.0 mm 0.00 in0.0 mm
11:15 PM 86.8°F30.4°C 70.7°F21.5°C 59% 7.4 mph SSE11.9 kmh SSE 12.3 mph19.8 kmh 29.30 in992.2 mb 0.00 in0.0 mm 0.00 in0.0 mm 0.00 in0.0 mm
11:20 PM 86.7°F30.4°C 70.6°F21.4°C 59% 5.9 mph SE9.5 kmh SE 12.3 mph19.8 kmh 29.30 in992.2 mb 0.00 in0.0 mm 0.00 in0.0 mm 0.00 in0.0 mm
11:25 PM 86.7°F30.4°C 71.0°F21.7°C 60% 7.0 mph SE11.3 kmh SE 12.3 mph19.8 kmh 29.29 in991.9 mb 0.00 in0.0 mm 0.00 in0.0 mm 0.00 in0.0 mm
11:30 PM 86.5°F30.3°C 71.0°F21.7°C 60% 6.4 mph SSE10.3 kmh SSE 9.8 mph15.8 kmh 29.30 in992.2 mb 0.00 in0.0 mm 0.00 in0.0 mm 0.00 in0.0 mm
11:35 PM 86.3°F30.2°C 71.0°F21.7°C 60% 3.9 mph ESE6.3 kmh ESE 7.4 mph11.9 kmh 29.29 in991.9 mb 0.00 in0.0 mm 0.00 in0.0 mm 0.00 in0.0 mm
11:40 PM 86.0°F30.0°C 71.0°F21.7°C 61% 6.7 mph SSE10.8 kmh SSE 12.3 mph19.8 kmh 29.30 in992.2 mb 0.00 in0.0 mm 0.00 in0.0 mm 0.00 in0.0 mm
11:45 PM 86.0°F30.0°C 71.0°F21.7°C 61% 7.8 mph SSE12.6 kmh SSE 12.3 mph19.8 kmh 29.29 in991.9 mb 0.00 in0.0 mm 0.00 in0.0 mm 0.00 in0.0 mm
11:50 PM 86.0°F30.0°C 71.2°F21.8°C 62% 11.5 mph SE18.5 kmh SE 22.4 mph36.0 kmh 29.29 in991.9 mb 0.00 in0.0 mm 0.00 in0.0 mm 0.00 in0.0 mm
11:55 PM 85.7°F29.8°C 71.6°F22.0°C 63% 7.1 mph SE11.4 kmh SE 9.8 mph15.8 kmh 29.29 in991.9 mb 0.00 in0.0 mm 0.00 in0.0 mm 0.00 in0.0 mm